createdAt,value
2023-09-08T00:01:47.925Z,14.90
2023-09-08T00:04:16.318Z,17.40
2023-09-08T00:06:47.197Z,15.85
2023-09-08T00:09:15.648Z,16.17
2023-09-08T00:11:44.054Z,16.90
2023-09-08T00:14:13.805Z,17.52
2023-09-08T00:16:43.949Z,16.67
2023-09-08T00:19:13.024Z,14.98
2023-09-08T00:21:41.248Z,18.77
2023-09-08T00:24:09.742Z,14.68
2023-09-08T00:26:38.054Z,16.90
2023-09-08T00:29:06.412Z,16.45
2023-09-08T00:31:36.022Z,17.38
2023-09-08T00:34:04.697Z,18.38
2023-09-08T00:36:34.498Z,16.05
2023-09-08T00:39:03.801Z,15.02
2023-09-08T00:41:34.601Z,16.83
2023-09-08T00:44:03.204Z,15.48
2023-09-08T00:46:31.912Z,16.52
2023-09-08T00:49:02.432Z,17.90
2023-09-08T00:51:30.873Z,17.25
2023-09-08T00:53:59.265Z,17.85
2023-09-08T00:56:28.089Z,16.20
2023-09-08T00:58:58.980Z,16.65
2023-09-08T01:01:30.219Z,16.75
2023-09-08T01:03:58.605Z,16.08
2023-09-08T01:06:31.647Z,18.17
2023-09-08T01:09:00.340Z,16.15
2023-09-08T01:11:28.816Z,19.17
2023-09-08T01:13:57.092Z,17.42
2023-09-08T01:16:25.285Z,20.02
2023-09-08T01:18:55.141Z,19.65
2023-09-08T01:21:52.745Z,17.15
2023-09-08T01:24:41.960Z,17.52
2023-09-08T01:27:16.242Z,20.80
2023-09-08T01:29:46.577Z,16.65
2023-09-08T01:32:14.940Z,16.77
2023-09-08T01:34:48.107Z,17.08
2023-09-08T01:37:16.399Z,19.90
2023-09-08T01:39:44.588Z,17.33
2023-09-08T01:42:16.038Z,19.33
2023-09-08T01:44:47.118Z,17.80
2023-09-08T01:47:16.214Z,16.73
2023-09-08T01:49:44.517Z,20.67
2023-09-08T01:52:14.453Z,18.25
2023-09-08T01:54:42.892Z,16.42
2023-09-08T01:57:15.169Z,17.27
2023-09-08T01:59:43.415Z,21.25
2023-09-08T02:02:13.899Z,18.45
2023-09-08T02:04:42.525Z,16.77
2023-09-08T02:07:10.746Z,17.63
2023-09-08T02:09:40.136Z,19.15
2023-09-08T02:12:09.885Z,19.33
2023-09-08T02:14:42.210Z,18.25
2023-09-08T02:17:11.018Z,16.95
2023-09-08T02:19:39.208Z,16.63
2023-09-08T02:22:07.543Z,17.30
2023-09-08T02:24:35.802Z,16.65
2023-09-08T02:27:04.619Z,17.23
2023-09-08T02:29:33.791Z,17.30
2023-09-08T02:32:05.053Z,17.73
2023-09-08T02:34:37.662Z,18.67
2023-09-08T02:37:08.360Z,17.45
2023-09-08T02:39:36.987Z,19.63
2023-09-08T02:42:10.263Z,18.48
2023-09-08T02:44:40.357Z,20.88
2023-09-08T02:47:11.341Z,16.13
2023-09-08T02:49:41.183Z,16.90
2023-09-08T02:52:09.479Z,15.82
2023-09-08T02:54:37.681Z,15.25
2023-09-08T02:57:08.159Z,16.17
2023-09-08T02:59:38.813Z,14.57
2023-09-08T03:02:07.257Z,13.43
2023-09-08T03:04:37.310Z,15.52
2023-09-08T03:07:08.085Z,16.17
2023-09-08T03:09:38.965Z,16.50
2023-09-08T03:12:11.303Z,15.27
2023-09-08T03:14:43.716Z,18.70
2023-09-08T03:17:12.031Z,17.60
2023-09-08T03:19:41.741Z,18.80
2023-09-08T03:22:12.495Z,16.95
2023-09-08T03:24:40.769Z,14.63
2023-09-08T03:27:09.698Z,14.15
2023-09-08T03:29:38.329Z,15.95
2023-09-08T03:32:07.776Z,15.85
2023-09-08T03:34:41.025Z,14.98
2023-09-08T03:37:16.232Z,17.67
2023-09-08T03:39:47.584Z,14.25
2023-09-08T03:42:15.835Z,14.57
2023-09-08T03:44:44.038Z,15.50
2023-09-08T03:47:12.372Z,18.13
2023-09-08T03:49:40.652Z,16.75
2023-09-08T03:52:09.211Z,16.02
2023-09-08T03:54:39.249Z,15.32
2023-09-08T03:57:07.505Z,15.43
2023-09-08T03:59:37.476Z,12.43
2023-09-08T04:02:05.999Z,14.25
2023-09-08T04:04:34.306Z,13.57
2023-09-08T04:07:06.952Z,18.33
2023-09-08T04:09:36.289Z,13.55
2023-09-08T04:12:06.802Z,15.00
2023-09-08T04:14:37.486Z,15.05
2023-09-08T04:17:06.036Z,15.80
2023-09-08T04:19:35.057Z,14.82
2023-09-08T04:22:03.422Z,14.52
2023-09-08T04:24:31.966Z,13.45
2023-09-08T04:27:00.413Z,12.57
2023-09-08T04:29:31.071Z,13.68
2023-09-08T04:31:59.316Z,14.55
2023-09-08T04:34:27.631Z,15.05
2023-09-08T04:36:56.144Z,15.40
2023-09-08T04:39:24.460Z,16.23
2023-09-08T04:41:53.384Z,15.20
2023-09-08T04:44:23.538Z,13.77
2023-09-08T04:46:54.676Z,13.88
2023-09-08T04:49:23.224Z,14.75
2023-09-08T04:51:51.515Z,15.18
2023-09-08T04:54:22.376Z,14.00
2023-09-08T04:56:52.071Z,16.10
2023-09-08T04:59:20.504Z,14.18
2023-09-08T05:01:49.277Z,14.48
2023-09-08T05:04:19.344Z,15.02
2023-09-08T05:06:48.380Z,15.35
2023-09-08T05:09:19.470Z,13.57
2023-09-08T05:11:48.072Z,13.57
2023-09-08T05:14:16.519Z,15.95
2023-09-08T05:16:47.821Z,17.17
2023-09-08T05:19:21.836Z,15.40
2023-09-08T05:21:52.069Z,16.95
2023-09-08T05:24:23.167Z,13.85
2023-09-08T05:26:54.027Z,15.13
2023-09-08T05:29:22.842Z,16.38
2023-09-08T05:31:52.903Z,15.02
2023-09-08T05:34:22.816Z,13.93
2023-09-08T05:36:51.428Z,13.40
2023-09-08T05:39:20.409Z,13.82
2023-09-08T05:41:49.344Z,14.20
2023-09-08T05:44:17.655Z,13.70
2023-09-08T05:46:47.294Z,16.40
2023-09-08T05:49:16.216Z,13.00
2023-09-08T05:51:48.087Z,17.33
2023-09-08T05:54:18.614Z,16.77
2023-09-08T05:56:47.230Z,16.05
2023-09-08T05:59:16.286Z,14.48
2023-09-08T06:01:44.980Z,13.43
2023-09-08T06:04:14.361Z,16.67
2023-09-08T06:06:42.964Z,15.95
2023-09-08T06:09:13.515Z,14.02
2023-09-08T06:11:45.043Z,13.90
2023-09-08T06:14:13.590Z,13.73
2023-09-08T06:16:44.966Z,14.93
2023-09-08T06:19:14.800Z,14.75
2023-09-08T06:21:43.687Z,16.17
2023-09-08T06:24:15.637Z,14.23
2023-09-08T06:26:47.153Z,17.25
2023-09-08T06:29:15.684Z,15.88
2023-09-08T06:31:43.910Z,15.38
2023-09-08T06:34:12.318Z,16.98
2023-09-08T06:36:43.691Z,14.13
2023-09-08T06:39:18.969Z,14.88
2023-09-08T06:41:47.308Z,14.13
2023-09-08T06:44:21.427Z,13.13
2023-09-08T06:46:49.745Z,13.40
2023-09-08T06:49:18.226Z,11.98
2023-09-08T06:51:48.707Z,13.57
2023-09-08T06:54:19.466Z,14.60
2023-09-08T06:56:48.299Z,11.60
2023-09-08T06:59:17.399Z,13.77
2023-09-08T07:01:46.026Z,12.50
2023-09-08T07:04:15.791Z,10.63
2023-09-08T07:06:46.177Z,11.77
2023-09-08T07:09:15.288Z,11.35
2023-09-08T07:11:47.764Z,11.65
2023-09-08T07:14:16.127Z,15.40
2023-09-08T07:16:46.176Z,11.05
2023-09-08T07:19:14.715Z,10.38
2023-09-08T07:21:45.363Z,12.40
2023-09-08T07:24:14.496Z,10.45
2023-09-08T07:26:43.347Z,10.75
2023-09-08T07:29:13.140Z,9.65
2023-09-08T07:31:41.995Z,11.68
2023-09-08T07:34:10.601Z,9.05
2023-09-08T07:36:39.022Z,8.82
2023-09-08T07:39:07.426Z,9.73
2023-09-08T07:41:35.844Z,10.10
2023-09-08T07:44:04.147Z,10.52
2023-09-08T07:46:33.924Z,12.02
2023-09-08T07:49:02.565Z,11.13
2023-09-08T07:51:33.164Z,10.88
2023-09-08T07:54:03.034Z,12.00
2023-09-08T07:56:31.329Z,9.85
2023-09-08T07:58:59.548Z,12.07
2023-09-08T08:01:27.954Z,10.05
2023-09-08T08:03:59.787Z,9.40
2023-09-08T08:06:29.627Z,10.55
2023-09-08T08:08:59.648Z,12.27
2023-09-08T08:11:29.579Z,10.00
2023-09-08T08:14:04.160Z,8.70
2023-09-08T08:16:32.541Z,9.82
2023-09-08T08:19:02.186Z,10.98
2023-09-08T08:21:31.251Z,11.90
2023-09-08T08:23:59.592Z,11.30
2023-09-08T08:26:30.939Z,9.20
2023-09-08T08:29:01.393Z,10.52
2023-09-08T08:31:29.931Z,9.30
2023-09-08T08:33:58.220Z,8.98
2023-09-08T08:36:28.213Z,9.13
2023-09-08T08:38:58.409Z,11.98
2023-09-08T08:41:26.937Z,9.40
2023-09-08T08:43:56.192Z,9.18
2023-09-08T08:46:25.260Z,9.07
2023-09-08T08:48:56.547Z,9.77
2023-09-08T08:51:30.458Z,9.57
2023-09-08T08:53:58.931Z,8.68
2023-09-08T08:56:29.613Z,10.18
2023-09-08T08:59:04.277Z,10.07
2023-09-08T09:01:33.825Z,9.10
2023-09-08T09:04:02.386Z,10.10
2023-09-08T09:06:32.394Z,9.98
2023-09-08T09:09:02.130Z,9.13
2023-09-08T09:11:31.848Z,9.38
2023-09-08T09:14:00.243Z,9.48
2023-09-08T09:16:30.030Z,10.15
2023-09-08T09:19:01.651Z,9.90
2023-09-08T09:21:47.259Z,10.18
2023-09-08T09:24:21.161Z,7.93
2023-09-08T09:26:56.015Z,11.77
2023-09-08T09:29:24.558Z,8.52
2023-09-08T09:31:54.785Z,12.32
2023-09-08T09:34:23.518Z,12.45
2023-09-08T09:36:53.955Z,12.30
2023-09-08T09:39:23.536Z,9.50
2023-09-08T09:41:55.020Z,9.05
2023-09-08T09:44:24.309Z,8.55
2023-09-08T09:46:54.656Z,7.93
2023-09-08T09:49:24.888Z,8.05
2023-09-08T09:51:56.619Z,7.43
2023-09-08T09:54:24.855Z,7.60
2023-09-08T09:56:54.418Z,9.15
2023-09-08T09:59:24.610Z,8.10
2023-09-08T10:01:54.357Z,9.95
2023-09-08T10:04:23.177Z,7.20
2023-09-08T10:06:56.181Z,10.98
2023-09-08T10:09:26.301Z,8.05
2023-09-08T10:11:57.661Z,9.98
2023-09-08T10:14:27.373Z,8.65
2023-09-08T10:17:01.061Z,7.90
2023-09-08T10:19:31.689Z,7.57
2023-09-08T10:22:04.668Z,8.68
2023-09-08T10:24:36.925Z,8.93
2023-09-08T10:27:09.993Z,8.68
2023-09-08T10:29:38.804Z,8.10
2023-09-08T10:32:10.949Z,9.77
2023-09-08T10:34:42.552Z,7.05
2023-09-08T10:37:29.046Z,6.28
2023-09-08T10:40:18.959Z,7.30
2023-09-08T10:42:48.799Z,5.80
2023-09-08T10:45:18.810Z,8.75
2023-09-08T10:48:02.167Z,7.00
2023-09-08T10:50:37.867Z,5.85
2023-09-08T10:53:15.483Z,6.60
2023-09-08T10:55:56.808Z,6.32
2023-09-08T10:58:35.147Z,6.68
2023-09-08T11:01:06.737Z,7.93
2023-09-08T11:03:50.943Z,7.95
2023-09-08T11:06:20.340Z,7.05
2023-09-08T11:08:54.067Z,9.93
2023-09-08T11:11:24.984Z,5.70
2023-09-08T11:13:53.311Z,7.00
2023-09-08T11:16:24.485Z,6.60
2023-09-08T11:18:53.947Z,6.80
2023-09-08T11:21:24.915Z,6.22
2023-09-08T11:23:53.246Z,7.00
2023-09-08T11:26:23.902Z,5.65
2023-09-08T11:28:54.753Z,8.23
2023-09-08T11:31:23.081Z,6.32
2023-09-08T11:33:52.962Z,6.50
2023-09-08T11:36:21.279Z,6.72
2023-09-08T11:38:49.480Z,5.50
2023-09-08T11:41:18.674Z,5.78
2023-09-08T11:43:48.909Z,5.18
2023-09-08T11:46:19.267Z,4.93
2023-09-08T11:48:48.762Z,5.68
2023-09-08T11:51:19.646Z,6.03
2023-09-08T11:53:48.019Z,5.43
2023-09-08T11:56:16.294Z,4.63
2023-09-08T11:58:46.403Z,5.25
2023-09-08T12:01:16.992Z,5.90
2023-09-08T12:03:54.172Z,4.85
2023-09-08T12:06:25.719Z,5.57
2023-09-08T12:08:54.072Z,5.32
2023-09-08T12:11:23.953Z,6.55
2023-09-08T12:13:54.117Z,6.55
2023-09-08T12:16:24.269Z,8.70
2023-09-08T12:18:52.918Z,5.40
2023-09-08T12:21:23.353Z,5.40
2023-09-08T12:23:52.389Z,6.35
2023-09-08T12:26:20.673Z,6.45
2023-09-08T12:28:49.532Z,5.22
2023-09-08T12:31:19.362Z,5.03
2023-09-08T12:33:49.049Z,5.82
2023-09-08T12:36:20.721Z,5.60
2023-09-08T12:38:56.424Z,5.88
2023-09-08T12:41:24.733Z,6.10
2023-09-08T12:43:52.938Z,9.23
2023-09-08T12:46:23.253Z,6.40
2023-09-08T12:48:53.268Z,6.38
2023-09-08T12:51:21.591Z,6.72
2023-09-08T12:53:50.823Z,6.60
2023-09-08T12:56:19.550Z,7.13
2023-09-08T12:58:48.187Z,6.32
2023-09-08T13:01:16.484Z,5.75
2023-09-08T13:03:45.058Z,6.30
2023-09-08T13:06:16.868Z,6.10
2023-09-08T13:08:47.385Z,4.85
2023-09-08T13:11:15.663Z,6.53
2023-09-08T13:13:45.691Z,5.97
2023-09-08T13:16:15.433Z,6.45
2023-09-08T13:18:46.144Z,4.65
2023-09-08T13:21:18.168Z,5.30
2023-09-08T13:23:46.466Z,6.20
2023-09-08T13:26:14.716Z,7.20
2023-09-08T13:28:43.030Z,4.82
2023-09-08T13:31:11.813Z,6.55
2023-09-08T13:33:40.405Z,7.70
2023-09-08T13:36:08.909Z,7.43
2023-09-08T13:38:39.114Z,5.40
2023-09-08T13:41:07.930Z,6.65
2023-09-08T13:43:36.197Z,6.72
2023-09-08T13:46:04.653Z,4.72
2023-09-08T13:48:35.967Z,5.18
2023-09-08T13:51:06.658Z,4.65
2023-09-08T13:53:43.195Z,5.65
2023-09-08T13:56:20.319Z,5.07
2023-09-08T13:58:52.252Z,5.32
2023-09-08T14:01:27.188Z,6.00
2023-09-08T14:04:03.528Z,5.45
2023-09-08T14:14:10.812Z,6.38
2023-09-08T14:16:39.927Z,5.30
2023-09-08T14:19:08.214Z,4.22
2023-09-08T14:21:38.306Z,5.47
2023-09-08T14:24:07.125Z,5.07
2023-09-08T14:26:36.124Z,4.72
2023-09-08T14:29:08.502Z,4.55
2023-09-08T14:31:37.077Z,4.90
2023-09-08T14:34:05.899Z,5.45
2023-09-08T14:36:36.616Z,4.88
2023-09-08T14:39:05.057Z,3.95
2023-09-08T14:41:35.244Z,4.25
2023-09-08T14:44:05.087Z,5.13
2023-09-08T14:46:33.658Z,4.03
2023-09-08T14:49:01.894Z,7.07
2023-09-08T14:51:30.345Z,4.38
2023-09-08T14:53:58.657Z,3.80
2023-09-08T14:56:26.990Z,5.05
2023-09-08T14:58:55.153Z,5.10
2023-09-08T15:01:25.005Z,4.53
2023-09-08T15:03:53.442Z,4.00
2023-09-08T15:06:25.271Z,6.00
2023-09-08T15:08:54.867Z,8.18
2023-09-08T15:11:23.231Z,4.88
2023-09-08T15:13:51.534Z,4.68
2023-09-08T15:16:21.532Z,4.35
2023-09-08T15:18:52.141Z,7.93
2023-09-08T15:21:26.783Z,4.57
2023-09-08T15:23:55.162Z,4.70
2023-09-08T15:26:23.597Z,5.80
2023-09-08T15:28:53.617Z,5.45
2023-09-08T15:31:24.719Z,5.07
2023-09-08T15:33:54.601Z,4.13
2023-09-08T15:36:26.792Z,4.22
2023-09-08T15:38:55.095Z,5.60
2023-09-08T15:41:23.320Z,6.85
2023-09-08T15:43:53.322Z,4.78
2023-09-08T15:46:22.317Z,5.70
2023-09-08T15:48:50.606Z,4.45
2023-09-08T15:51:20.290Z,12.38
2023-09-08T15:53:48.674Z,13.02
2023-09-08T15:56:17.000Z,11.52
2023-09-08T15:58:45.475Z,14.13
2023-09-08T16:01:15.095Z,19.90
2023-09-08T16:03:47.165Z,17.60
2023-09-08T16:06:15.651Z,18.77
2023-09-08T16:08:45.304Z,21.20
2023-09-08T16:11:13.898Z,16.55
2023-09-08T16:13:44.268Z,23.13
2023-09-08T16:16:12.541Z,23.73
2023-09-08T16:18:42.399Z,24.13
2023-09-08T16:21:10.890Z,21.90
2023-09-08T16:23:39.408Z,24.00
2023-09-08T16:26:09.465Z,20.88
2023-09-08T16:28:37.760Z,27.30
2023-09-08T16:31:06.764Z,24.67
2023-09-08T16:33:35.694Z,23.00
2023-09-08T16:36:04.615Z,27.55
2023-09-08T16:38:34.072Z,24.42
2023-09-08T16:41:02.424Z,21.73
2023-09-08T16:43:32.041Z,24.73
2023-09-08T16:46:00.595Z,32.42
2023-09-08T16:48:28.982Z,26.35
2023-09-08T16:50:59.387Z,32.15
2023-09-08T16:53:27.636Z,29.33
2023-09-08T16:55:55.940Z,32.90
2023-09-08T16:58:25.072Z,36.08
2023-09-08T17:00:56.128Z,37.65
2023-09-08T17:03:24.504Z,32.60
2023-09-08T17:05:52.978Z,32.35
2023-09-08T17:08:23.591Z,36.55
2023-09-08T17:10:51.908Z,33.92
2023-09-08T17:13:20.156Z,31.70
2023-09-08T17:15:48.528Z,32.13
2023-09-08T17:18:19.681Z,31.70
2023-09-08T17:20:49.580Z,34.55
2023-09-08T17:23:19.120Z,39.70
2023-09-08T17:25:50.047Z,37.67
2023-09-08T17:28:19.285Z,31.80
2023-09-08T17:30:48.670Z,35.47
2023-09-08T17:33:20.222Z,35.88
2023-09-08T17:35:51.132Z,35.72
2023-09-08T17:38:19.731Z,38.40
2023-09-08T17:40:49.182Z,34.72
2023-09-08T17:43:17.523Z,38.25
2023-09-08T17:45:48.851Z,38.35
2023-09-08T17:48:18.599Z,42.20
2023-09-08T17:50:49.138Z,39.58
2023-09-08T17:53:17.407Z,37.85
2023-09-08T17:55:45.657Z,38.40
2023-09-08T17:58:16.872Z,35.72
2023-09-08T18:00:47.362Z,39.95
2023-09-08T18:03:19.769Z,36.05
2023-09-08T18:05:51.143Z,32.92
2023-09-08T18:08:19.430Z,35.55
2023-09-08T18:10:48.119Z,33.00
2023-09-08T18:13:16.434Z,34.00
2023-09-08T18:15:44.725Z,35.35
2023-09-08T18:18:13.190Z,32.00
2023-09-08T18:20:41.516Z,32.65
2023-09-08T18:23:11.199Z,35.70
2023-09-08T18:25:39.490Z,42.65
2023-09-08T18:28:08.899Z,41.38
2023-09-08T18:30:37.250Z,39.28
2023-09-08T18:33:05.754Z,48.33
2023-09-08T18:35:35.164Z,49.13
2023-09-08T18:38:03.744Z,45.08
2023-09-08T18:40:33.502Z,46.30
2023-09-08T18:43:01.827Z,47.22
2023-09-08T18:45:30.238Z,50.15
2023-09-08T18:47:58.552Z,51.45
2023-09-08T18:50:26.981Z,49.63
2023-09-08T18:52:55.890Z,57.67
2023-09-08T18:55:25.178Z,60.92
2023-09-08T18:57:55.162Z,54.92
2023-09-08T19:00:23.892Z,56.10
2023-09-08T19:02:52.328Z,54.67
2023-09-08T19:05:20.836Z,54.13
2023-09-08T19:07:49.239Z,50.78
2023-09-08T19:10:18.468Z,50.22
2023-09-08T19:12:46.675Z,49.80
2023-09-08T19:15:17.262Z,48.85
2023-09-08T19:17:46.728Z,47.30
2023-09-08T19:20:15.138Z,49.83
2023-09-08T19:22:43.594Z,55.47
2023-09-08T19:25:11.923Z,63.85
2023-09-08T19:27:40.353Z,60.30
2023-09-08T19:30:13.926Z,56.47
2023-09-08T19:32:43.566Z,49.97
2023-09-08T19:35:12.432Z,52.78
2023-09-08T19:37:40.799Z,55.50
2023-09-08T19:40:11.313Z,53.88
2023-09-08T19:42:40.041Z,55.38
2023-09-08T19:45:08.981Z,47.58
2023-09-08T19:47:39.254Z,50.75
2023-09-08T19:50:13.030Z,47.67
2023-09-08T19:52:41.769Z,58.28
2023-09-08T19:55:10.930Z,54.65
2023-09-08T19:57:39.230Z,54.33
2023-09-08T20:00:09.276Z,62.35
2023-09-08T20:02:44.577Z,60.53
2023-09-08T20:05:14.352Z,63.30
2023-09-08T20:07:44.231Z,60.03
2023-09-08T20:10:13.263Z,60.05
2023-09-08T20:12:42.654Z,62.72
2023-09-08T20:15:13.809Z,61.60
2023-09-08T20:17:44.000Z,56.25
2023-09-08T20:20:14.415Z,60.58
2023-09-08T20:22:42.690Z,66.07
2023-09-08T20:25:11.235Z,65.85
2023-09-08T20:27:39.521Z,63.97
2023-09-08T20:30:08.918Z,69.10
2023-09-08T20:32:37.211Z,69.75
2023-09-08T20:35:05.987Z,69.85
2023-09-08T20:37:35.790Z,77.25
2023-09-08T20:40:04.768Z,76.55
2023-09-08T20:42:33.025Z,70.93
2023-09-08T20:45:01.704Z,69.80
2023-09-08T20:47:30.473Z,71.07
2023-09-08T20:50:00.930Z,72.93
2023-09-08T20:52:29.429Z,82.40
2023-09-08T20:55:00.469Z,77.28
2023-09-08T20:57:29.240Z,81.53
2023-09-08T20:59:57.458Z,82.88
2023-09-08T21:02:25.711Z,76.95
2023-09-08T21:04:54.016Z,80.72
2023-09-08T21:07:22.281Z,77.32
2023-09-08T21:09:52.344Z,84.30
2023-09-08T21:12:22.055Z,83.28
2023-09-08T21:14:50.349Z,82.65
2023-09-08T21:17:18.560Z,86.35
2023-09-08T21:19:47.136Z,84.65
2023-09-08T21:22:15.405Z,87.32
2023-09-08T21:24:43.677Z,85.75
2023-09-08T21:27:12.151Z,87.68
2023-09-08T21:29:42.824Z,87.65
2023-09-08T21:32:11.134Z,88.60
2023-09-08T21:34:41.261Z,91.97
2023-09-08T21:37:10.374Z,91.25
2023-09-08T21:39:38.721Z,91.20
2023-09-08T21:42:08.702Z,90.97
2023-09-08T21:44:37.081Z,91.90
2023-09-08T21:47:09.472Z,82.40
2023-09-08T21:49:37.911Z,90.63
2023-09-08T21:52:07.758Z,94.00
2023-09-08T21:54:36.131Z,87.65
2023-09-08T21:57:04.575Z,89.18
2023-09-08T21:59:32.901Z,88.13
2023-09-08T22:02:06.630Z,86.20
2023-09-08T22:04:38.995Z,91.00
2023-09-08T22:07:07.610Z,91.63
2023-09-08T22:09:35.836Z,100.78
2023-09-08T22:12:09.411Z,92.88
2023-09-08T22:14:39.219Z,98.35
2023-09-08T22:17:07.530Z,102.38
2023-09-08T22:19:37.696Z,106.63
2023-09-08T22:22:08.981Z,99.93
2023-09-08T22:24:37.347Z,103.60
2023-09-08T22:27:06.023Z,102.25
2023-09-08T22:29:34.340Z,102.00
2023-09-08T22:32:02.528Z,101.15
2023-09-08T22:34:31.296Z,101.63
2023-09-08T22:37:00.961Z,104.10
2023-09-08T22:39:31.177Z,108.80
2023-09-08T22:42:01.687Z,105.38
2023-09-08T22:44:31.523Z,108.03
2023-09-08T22:46:59.795Z,99.90
2023-09-08T22:49:28.483Z,115.05
2023-09-08T22:51:56.712Z,114.80
2023-09-08T22:54:26.531Z,110.93
2023-09-08T22:56:55.117Z,111.82
2023-09-08T22:59:25.022Z,107.10
2023-09-08T23:01:53.288Z,111.68
2023-09-08T23:04:21.695Z,102.18
2023-09-08T23:06:51.903Z,107.30
2023-09-08T23:09:20.367Z,102.35
2023-09-08T23:11:49.956Z,101.45
2023-09-08T23:14:18.219Z,99.65
2023-09-08T23:16:46.764Z,108.47
2023-09-08T23:19:15.096Z,106.80
2023-09-08T23:21:45.723Z,98.55
2023-09-08T23:24:15.774Z,96.90
2023-09-08T23:26:44.051Z,91.28
2023-09-08T23:29:14.376Z,91.47
2023-09-08T23:31:42.705Z,88.55
2023-09-08T23:34:14.816Z,93.13
2023-09-08T23:36:43.271Z,106.78
2023-09-08T23:39:11.869Z,97.93
2023-09-08T23:41:44.058Z,97.50
2023-09-08T23:44:17.723Z,98.05
2023-09-08T23:46:48.039Z,96.43
2023-09-08T23:49:16.287Z,105.70
2023-09-08T23:51:46.613Z,101.22
2023-09-08T23:54:17.392Z,111.25
2023-09-08T23:56:45.701Z,119.90
2023-09-08T23:59:15.368Z,114.85
